PWSweather.com
Personal Weather Stations
Station Observations
KVAGLENALL
West Henrico, Glen Allen, VA 23060-6503

West HenricoGlen Allen, VA 23060-6503

Lat: 37.6554, Lon: -77.5693

Elevation: 273

Station Type: Davis Vantage Pro II

www.glenallenweather.com

High Low Average
Temperature 52.5°F11.4°C 39.8°F4.3°C 44.8°F7.1°C
Dew Point 44.5°F6.9°C 36.1°F2.3°C 40.5°F4.7°C
Winds 6.0 mph 9.7 kmh Calm Calm 2.0 mph SSE3.2 kmh SSE
Wind Gusts 9.1 mph14.6 kmh -- 4.0 mph6.4 kmh
Humidity 96% 71% 85%
Pressure 29.94 in1013.9 mb 29.75 in1007.5 mb -
Precipitation 0.00 in0.0 mm - -
Hour Temp Dew Point Humidity Winds Wind Gusts Pressure Precip Precip Rate Daily Precip Total
12:30 AM 41.3°F5.2°C 36.2°F2.3°C 82% 4.0 mph NNE6.4 kmh NNE 5.1 mph8.2 kmh 29.94 in1013.9 mb 0.00 in0.0 mm 0.00 in0.0 mm 0.00 in0.0 mm
01:30 AM 41.0°F5.0°C 37.2°F2.9°C 86% 5.0 mph NNE8.0 kmh NNE 8.1 mph13.0 kmh 29.92 in1013.2 mb 0.00 in0.0 mm 0.00 in0.0 mm 0.00 in0.0 mm
02:30 AM 40.9°F4.9°C 37.6°F3.1°C 88% 6.0 mph N9.7 kmh N 9.1 mph14.6 kmh 29.92 in1013.2 mb 0.00 in0.0 mm 0.00 in0.0 mm 0.00 in0.0 mm
03:30 AM 40.6°F4.8°C 37.0°F2.8°C 87% 5.0 mph NNW8.0 kmh NNW 6.1 mph9.8 kmh 29.90 in1012.5 mb 0.00 in0.0 mm 0.00 in0.0 mm 0.00 in0.0 mm
04:30 AM 40.2°F4.6°C 36.7°F2.6°C 87% 3.0 mph N4.8 kmh N 6.1 mph9.8 kmh 29.89 in1012.2 mb 0.00 in0.0 mm 0.00 in0.0 mm 0.00 in0.0 mm
05:30 AM 40.3°F4.6°C 36.5°F2.5°C 86% 4.0 mph NNE6.4 kmh NNE 6.1 mph9.8 kmh 29.89 in1012.2 mb 0.00 in0.0 mm 0.00 in0.0 mm 0.00 in0.0 mm
06:15 AM 39.9°F4.4°C 36.1°F2.3°C 86% Calm Calm 4.0 mph6.4 kmh 29.88 in1011.9 mb 0.00 in0.0 mm 0.00 in0.0 mm 0.00 in0.0 mm
07:00 AM 39.8°F4.3°C 36.3°F2.4°C 87% 1.0 mph N1.6 kmh N 3.0 mph4.8 kmh 29.89 in1012.2 mb 0.00 in0.0 mm 0.00 in0.0 mm 0.00 in0.0 mm
07:30 AM 40.3°F4.6°C 36.8°F2.7°C 87% 2.0 mph N3.2 kmh N 5.1 mph8.2 kmh 29.89 in1012.2 mb 0.00 in0.0 mm 0.00 in0.0 mm 0.00 in0.0 mm
08:30 AM 41.0°F5.0°C 37.7°F3.2°C 88% 2.0 mph N3.2 kmh N 5.1 mph8.2 kmh 29.89 in1012.2 mb 0.00 in0.0 mm 0.00 in0.0 mm 0.00 in0.0 mm
09:30 AM 42.2°F5.7°C 38.9°F3.8°C 88% 3.0 mph N4.8 kmh N 4.0 mph6.4 kmh 29.88 in1011.9 mb 0.00 in0.0 mm 0.00 in0.0 mm 0.00 in0.0 mm
10:30 AM 43.1°F6.2°C 39.5°F4.2°C 87% 2.0 mph NNE3.2 kmh NNE 5.1 mph8.2 kmh 29.87 in1011.5 mb 0.00 in0.0 mm 0.00 in0.0 mm 0.00 in0.0 mm
11:30 AM 46.6°F8.1°C 41.1°F5.1°C 81% 2.0 mph NW3.2 kmh NW 4.0 mph6.4 kmh 29.83 in1010.2 mb 0.00 in0.0 mm 0.00 in0.0 mm 0.00 in0.0 mm
12:30 PM 51.8°F11.0°C 44.1°F6.7°C 75% 3.0 mph NNE4.8 kmh NNE 4.0 mph6.4 kmh 29.79 in1008.8 mb 0.00 in0.0 mm 0.00 in0.0 mm 0.00 in0.0 mm
01:30 PM 52.5°F11.4°C 43.3°F6.3°C 71% 3.0 mph N4.8 kmh N 6.1 mph9.8 kmh 29.76 in1007.8 mb 0.00 in0.0 mm 0.00 in0.0 mm 0.00 in0.0 mm
02:30 PM 50.9°F10.5°C 42.9°F6.1°C 74% Calm Calm -- 29.76 in1007.8 mb 0.00 in0.0 mm 0.00 in0.0 mm 0.00 in0.0 mm
03:30 PM 51.8°F11.0°C 43.0°F6.1°C 72% 2.0 mph SSW3.2 kmh SSW 2.0 mph3.2 kmh 29.76 in1007.8 mb 0.00 in0.0 mm 0.00 in0.0 mm 0.00 in0.0 mm
04:30 PM 50.3°F10.2°C 43.7°F6.5°C 78% Calm Calm 1.0 mph1.6 kmh 29.75 in1007.5 mb 0.00 in0.0 mm 0.00 in0.0 mm 0.00 in0.0 mm
05:30 PM 48.8°F9.3°C 43.0°F6.1°C 80% Calm Calm 2.0 mph3.2 kmh 29.76 in1007.8 mb 0.00 in0.0 mm 0.00 in0.0 mm 0.00 in0.0 mm
06:30 PM 47.9°F8.8°C 43.3°F6.3°C 84% Calm Calm 2.0 mph3.2 kmh 29.77 in1008.1 mb 0.00 in0.0 mm 0.00 in0.0 mm 0.00 in0.0 mm
07:30 PM 46.4°F8.0°C 44.0°F6.7°C 91% Calm Calm -- 29.77 in1008.1 mb 0.06 in1.5 mm 0.00 in0.0 mm 0.06 in1.5 mm
08:30 PM 45.8°F7.7°C 44.2°F6.8°C 94% Calm Calm -- 29.77 in1008.1 mb 0.07 in1.8 mm 0.00 in0.0 mm 0.07 in1.8 mm
09:30 PM 45.6°F7.6°C 44.3°F6.8°C 95% Calm Calm -- 29.77 in1008.1 mb 0.01 in0.3 mm 0.00 in0.0 mm 0.07 in1.8 mm
10:30 PM 45.5°F7.5°C 44.2°F6.8°C 95% Calm Calm -- 29.77 in1008.1 mb 0.01 in0.3 mm 0.00 in0.0 mm 0.07 in1.8 mm
11:30 PM 45.5°F7.5°C 44.5°F6.9°C 96% Calm Calm 3.0 mph4.8 kmh 29.78 in1008.5 mb 0.01 in0.3 mm 0.00 in0.0 mm 0.07 in1.8 mm